Time;durP1;ratioP1;P1;durP2;ratioP2;P2;SDS_P1;SDS_P2;PMS_P1;PMS_P2;Temp;Humidity;BMP_temperature;BMP_pressure;BME280_temperature;BME280_humidity;BME280_pressure;Samples;Min_cycle;Max_cycle;Signal;HPM_P1;HPM_P2
2024/01/18 00:01:00;;;;;;;0.90;0.90;;;-2.00;99.90;;;;;;5059485;28;20098;-78
2024/01/18 00:03:26;;;;;;;0.70;0.70;;;-2.10;99.90;;;;;;5054778;28;20398;-77
2024/01/18 00:05:58;;;;;;;0.85;0.85;;;-2.10;99.90;;;;;;5054962;28;20187;-77
2024/01/18 00:08:23;;;;;;;1.17;1.17;;;-2.30;99.90;;;;;;5040594;28;20147;-77
2024/01/18 00:10:49;;;;;;;0.90;0.90;;;-2.40;99.90;;;;;;5047542;28;20044;-77
2024/01/18 00:13:16;;;;;;;0.90;0.90;;;-2.40;99.90;;;;;;5044558;28;20045;-76
2024/01/18 00:15:43;;;;;;;0.90;0.90;;;-2.40;99.90;;;;;;5038705;28;20545;-77
2024/01/18 00:18:11;;;;;;;0.80;0.80;;;-2.30;99.90;;;;;;5058652;28;20045;-77
2024/01/18 00:20:39;;;;;;;1.42;1.38;;;-1.80;99.90;;;;;;5059208;28;20049;-79
2024/01/18 00:23:05;;;;;;;1.52;1.45;;;-2.10;99.90;;;;;;5041781;28;20040;-77
2024/01/18 00:25:31;;;;;;;0.88;0.88;;;-1.80;99.90;;;;;;5041377;28;20072;-78
2024/01/18 00:27:56;;;;;;;0.90;0.90;;;-2.00;99.90;;;;;;5043680;28;20123;-76
2024/01/18 00:30:22;;;;;;;0.93;0.93;;;-1.90;99.90;;;;;;5061080;28;20047;-77
2024/01/18 00:32:48;;;;;;;0.80;0.80;;;-1.80;99.90;;;;;;5042444;28;20118;-77
2024/01/18 00:35:14;;;;;;;0.80;0.80;;;-1.80;99.90;;;;;;5043383;28;20128;-77
2024/01/18 00:37:40;;;;;;;0.90;0.90;;;-1.70;99.90;;;;;;5056714;28;20036;-77
2024/01/18 00:40:14;;;;;;;0.80;0.80;;;-1.80;99.90;;;;;;5049196;28;20127;-78
2024/01/18 00:42:39;;;;;;;0.70;0.70;;;-1.80;99.90;;;;;;5039160;28;20048;-75
2024/01/18 00:45:08;;;;;;;0.85;0.85;;;-1.80;99.90;;;;;;5064737;28;20158;-78
2024/01/18 00:47:34;;;;;;;0.80;0.80;;;-1.90;99.90;;;;;;5058194;28;20502;-76
2024/01/18 00:50:00;;;;;;;;;;;-2.00;99.90;;;;;;5040656;28;20110;-78
2024/01/18 00:52:26;;;;;;;0.80;0.80;;;-2.00;99.90;;;;;;5041455;28;19960;-79
2024/01/18 00:54:52;;;;;;;0.90;0.90;;;-2.00;99.90;;;;;;5037764;28;20486;-77
2024/01/18 00:57:18;;;;;;;;;;;-2.00;99.90;;;;;;5039591;28;20056;-78
2024/01/18 00:59:43;;;;;;;0.80;0.80;;;-1.90;99.90;;;;;;5038178;28;19923;-77
2024/01/18 01:02:10;;;;;;;0.80;0.80;;;-1.90;99.90;;;;;;5040551;28;20035;-76
2024/01/18 01:04:36;;;;;;;0.82;0.82;;;-1.90;99.90;;;;;;5038895;28;20041;-77
2024/01/18 01:07:03;;;;;;;0.73;0.73;;;-2.00;99.90;;;;;;5057198;28;20094;-76
2024/01/18 01:09:29;;;;;;;0.77;0.77;;;-2.00;99.90;;;;;;5054538;28;20101;-75
2024/01/18 01:11:56;;;;;;;;;;;-2.00;99.90;;;;;;5060520;28;20068;-76
2024/01/18 01:14:22;;;;;;;0.80;0.80;;;-2.10;99.90;;;;;;5038493;28;20266;-78
2024/01/18 01:16:56;;;;;;;0.80;0.80;;;-2.10;99.90;;;;;;5053852;28;20040;-78
2024/01/18 01:19:22;;;;;;;;;;;-1.90;99.90;;;;;;5060007;28;20145;-76
2024/01/18 01:21:48;;;;;;;1.52;1.50;;;-2.10;99.90;;;;;;5039039;28;20393;-77
2024/01/18 01:24:17;;;;;;;0.75;0.75;;;-2.10;99.90;;;;;;5056756;28;20137;-76
2024/01/18 01:26:48;;;;;;;0.70;0.70;;;-2.10;99.90;;;;;;5059442;28;20053;-77
2024/01/18 01:29:19;;;;;;;0.82;0.82;;;-2.10;99.90;;;;;;5056759;28;20067;-76
2024/01/18 01:31:45;;;;;;;0.80;0.80;;;-2.20;99.90;;;;;;5060705;28;20048;-79
2024/01/18 01:34:13;;;;;;;0.82;0.82;;;-2.30;99.90;;;;;;5039871;28;20051;-76
2024/01/18 01:36:40;;;;;;;0.80;0.80;;;-2.20;99.90;;;;;;5061483;28;20048;-76
2024/01/18 01:39:10;;;;;;;1.13;1.13;;;-2.20;99.90;;;;;;5054646;28;20547;-77
2024/01/18 01:41:36;;;;;;;0.80;0.80;;;-2.00;99.90;;;;;;5056174;28;20041;-77
2024/01/18 01:44:02;;;;;;;0.85;0.85;;;-2.20;99.90;;;;;;5056636;28;20091;-76
2024/01/18 01:46:29;;;;;;;0.80;0.80;;;-2.00;99.90;;;;;;5057028;28;20083;-76
2024/01/18 01:49:04;;;;;;;0.80;0.80;;;-1.90;99.90;;;;;;5031172;28;20043;-77
2024/01/18 01:51:41;;;;;;;0.75;0.75;;;-1.70;99.90;;;;;;5056527;28;20044;-76
2024/01/18 01:54:08;;;;;;;0.90;0.90;;;-1.60;99.90;;;;;;5058525;28;20040;-76
2024/01/18 01:56:38;;;;;;;0.80;0.80;;;-1.50;99.90;;;;;;5053229;28;20048;-77
2024/01/18 01:59:09;;;;;;;0.80;0.80;;;-1.40;99.90;;;;;;5052125;28;20486;-77
2024/01/18 02:01:36;;;;;;;0.70;0.70;;;-1.30;99.90;;;;;;5053272;28;20041;-76
2024/01/18 02:04:02;;;;;;;0.80;0.80;;;-1.20;99.90;;;;;;5059659;28;20036;-75
2024/01/18 02:06:29;;;;;;;;;;;-1.20;99.90;;;;;;5060099;28;20041;-75
2024/01/18 02:08:55;;;;;;;0.80;0.80;;;-1.20;99.90;;;;;;5063097;28;19916;-77
2024/01/18 02:11:21;;;;;;;0.80;0.80;;;-1.30;99.90;;;;;;5046385;28;20098;-75
2024/01/18 02:13:49;;;;;;;0.60;0.60;;;-1.40;99.90;;;;;;5062574;28;20386;-77
2024/01/18 02:16:14;;;;;;;0.80;0.80;;;-1.50;99.90;;;;;;5058906;28;20041;-76
2024/01/18 02:18:40;;;;;;;0.80;0.80;;;-1.60;99.90;;;;;;5064948;28;20041;-77
2024/01/18 02:21:09;;;;;;;0.80;0.80;;;-1.60;99.90;;;;;;5066589;28;20778;-76
2024/01/18 02:23:38;;;;;;;0.88;0.88;;;-1.60;99.90;;;;;;5035887;28;20043;-76
2024/01/18 02:26:04;;;;;;;0.70;0.70;;;-1.70;99.90;;;;;;5062963;28;20086;-77
2024/01/18 02:28:30;;;;;;;0.90;0.90;;;-1.80;99.90;;;;;;5043128;28;20040;-76
2024/01/18 02:30:56;;;;;;;0.80;0.80;;;-1.80;99.90;;;;;;5049619;28;20397;-75
2024/01/18 02:33:21;;;;;;;0.80;0.80;;;-1.90;99.90;;;;;;5043893;28;20070;-75
2024/01/18 02:35:48;;;;;;;;;;;-1.90;99.90;;;;;;5063384;28;20114;-77
2024/01/18 02:38:14;;;;;;;0.70;0.70;;;-2.00;99.90;;;;;;5063346;28;19978;-75
2024/01/18 02:40:40;;;;;;;0.80;0.80;;;-2.00;99.90;;;;;;5064598;28;20362;-77
2024/01/18 02:43:19;;;;;;;0.80;0.80;;;-2.00;99.90;;;;;;5063196;28;20051;-75
2024/01/18 02:45:44;;;;;;;0.88;0.88;;;-2.20;99.90;;;;;;5040871;28;20044;-75
2024/01/18 02:48:10;;;;;;;0.80;0.80;;;-2.10;99.90;;;;;;5031965;28;20119;-76
2024/01/18 02:50:39;;;;;;;;;;;-2.20;99.90;;;;;;5028408;28;20044;-75
2024/01/18 02:53:05;;;;;;;0.93;0.93;;;-2.10;99.90;;;;;;5044428;28;19964;-77
2024/01/18 02:55:30;;;;;;;;;;;-2.10;99.90;;;;;;5044304;28;20059;-75
2024/01/18 02:57:56;;;;;;;0.70;0.70;;;-2.10;99.90;;;;;;5055293;28;19924;-77
2024/01/18 03:00:22;;;;;;;0.90;0.90;;;-2.10;99.90;;;;;;5058535;28;20036;-77
2024/01/18 03:02:47;;;;;;;;;;;-2.00;99.90;;;;;;5061563;28;20058;-77
2024/01/18 03:05:13;;;;;;;1.00;1.00;;;-2.00;99.90;;;;;;5034092;28;19927;-76
2024/01/18 03:07:39;;;;;;;;;;;-2.00;99.90;;;;;;5064846;28;20036;-77
2024/01/18 03:10:06;;;;;;;0.70;0.70;;;-1.90;99.90;;;;;;5050399;28;19922;-76
2024/01/18 03:12:37;;;;;;;0.82;0.82;;;-1.90;99.90;;;;;;5059710;28;20082;-76
2024/01/18 03:15:05;;;;;;;0.82;0.82;;;-1.90;99.90;;;;;;5033620;28;20052;-76
2024/01/18 03:17:31;;;;;;;0.70;0.70;;;-1.80;99.90;;;;;;5026424;28;20068;-75
2024/01/18 03:19:57;;;;;;;;;;;-1.90;99.90;;;;;;5039530;28;20387;-76
2024/01/18 03:22:24;;;;;;;0.90;0.90;;;-1.80;99.90;;;;;;5037706;28;20332;-76
2024/01/18 03:24:53;;;;;;;0.80;0.80;;;-1.80;99.90;;;;;;5043711;28;20037;-77
2024/01/18 03:27:20;;;;;;;0.80;0.80;;;-1.90;99.90;;;;;;5046614;28;20197;-77
2024/01/18 03:29:45;;;;;;;0.80;0.80;;;-1.90;99.90;;;;;;5061661;28;20044;-75
2024/01/18 03:32:17;;;;;;;0.70;0.70;;;-1.90;99.90;;;;;;5045754;28;20115;-77
2024/01/18 03:34:43;;;;;;;0.70;0.70;;;-1.80;99.90;;;;;;5062061;28;20796;-75
2024/01/18 03:37:09;;;;;;;0.80;0.80;;;-1.80;99.90;;;;;;5066070;28;20060;-76
2024/01/18 03:39:36;;;;;;;0.70;0.70;;;-1.70;99.90;;;;;;5042940;28;20387;-78
2024/01/18 03:42:02;;;;;;;0.90;0.90;;;-1.60;99.90;;;;;;5040936;28;20048;-75
2024/01/18 03:44:28;;;;;;;0.70;0.70;;;-1.40;99.90;;;;;;5061012;28;20103;-75
2024/01/18 03:47:00;;;;;;;2.28;2.13;;;-1.30;99.90;;;;;;5060270;28;20051;-75
2024/01/18 03:49:26;;;;;;;0.82;0.82;;;-1.20;99.90;;;;;;5055538;28;20041;-75
2024/01/18 03:51:54;;;;;;;0.80;0.80;;;-1.10;99.90;;;;;;5058087;28;20041;-75
2024/01/18 03:54:20;;;;;;;0.80;0.80;;;-1.00;99.90;;;;;;5041129;28;20107;-75
2024/01/18 03:56:46;;;;;;;0.80;0.80;;;-0.90;99.90;;;;;;5062788;28;20056;-76
2024/01/18 03:59:15;;;;;;;0.80;0.80;;;-0.60;99.90;;;;;;5027765;28;20041;-76
2024/01/18 04:01:43;;;;;;;0.77;0.77;;;-0.70;99.90;;;;;;5059669;28;20111;-76
2024/01/18 04:04:09;;;;;;;0.70;0.70;;;-0.70;99.90;;;;;;5055601;28;20044;-75
2024/01/18 04:06:34;;;;;;;0.80;0.80;;;-0.50;99.90;;;;;;5051700;28;20037;-75
2024/01/18 04:09:00;;;;;;;0.90;0.90;;;-0.50;99.90;;;;;;5040616;28;20084;-75
2024/01/18 04:11:26;;;;;;;0.70;0.70;;;;;;;;;;5024417;28;20037;-75
2024/01/18 04:13:52;;;;;;;0.70;0.70;;;;;;;;;;5058079;28;20088;-78
2024/01/18 04:16:20;;;;;;;0.70;0.70;;;;;;;;;;5040963;28;20083;-76
2024/01/18 04:18:46;;;;;;;0.80;0.80;;;;;;;;;;5026144;28;20044;-76
2024/01/18 04:21:15;;;;;;;0.70;0.70;;;;;;;;;;5061043;28;20402;-76
2024/01/18 04:23:42;;;;;;;;;;;;;;;;;;5062332;28;20139;-75
2024/01/18 04:26:08;;;;;;;;;;;;;;;;;;5058337;28;19921;-77
2024/01/18 04:28:34;;;;;;;0.80;0.80;;;;;;;;;;5061781;28;19916;-76
2024/01/18 04:31:00;;;;;;;;;;;;;;;;;;5046123;28;20436;-76
2024/01/18 04:33:26;;;;;;;0.80;0.80;;;;;;;;;;5056448;28;20012;-78
2024/01/18 04:35:53;;;;;;;0.70;0.70;;;;;;;;;;5054081;28;20052;-76
2024/01/18 04:38:18;;;;;;;;;;;;;;;;;;5043119;28;20076;-76
2024/01/18 04:40:45;;;;;;;0.65;0.65;;;;;;;;;;5060653;28;19963;-76
2024/01/18 04:43:11;;;;;;;;;;;;;;;;;;5060383;28;20040;-78
2024/01/18 04:45:36;;;;;;;0.80;0.80;;;-0.80;99.90;;;;;;5059131;28;19921;-75
2024/01/18 04:48:03;;;;;;;0.75;0.75;;;-1.10;99.90;;;;;;5057756;28;20128;-76
2024/01/18 04:50:29;;;;;;;0.80;0.80;;;-1.30;99.90;;;;;;5056718;28;20464;-76
2024/01/18 04:52:55;;;;;;;0.80;0.80;;;-1.30;99.90;;;;;;5047476;28;20136;-76
2024/01/18 04:55:21;;;;;;;0.80;0.80;;;-1.40;99.90;;;;;;5058759;28;20059;-75
2024/01/18 04:57:49;;;;;;;0.80;0.80;;;-1.10;99.90;;;;;;5025534;28;20053;-76
2024/01/18 05:00:21;;;;;;;0.80;0.80;;;-1.40;99.90;;;;;;5055391;28;20040;-75
2024/01/18 05:02:47;;;;;;;0.70;0.70;;;-1.50;99.90;;;;;;5042944;28;20037;-76
2024/01/18 05:05:13;;;;;;;0.77;0.77;;;-1.60;99.90;;;;;;5043191;28;20048;-75
2024/01/18 05:07:49;;;;;;;0.70;0.70;;;-1.40;99.90;;;;;;5006689;28;20444;-74
2024/01/18 05:10:15;;;;;;;0.90;0.90;;;-1.60;99.90;;;;;;5055179;28;20053;-75
2024/01/18 05:12:41;;;;;;;;;;;-1.50;99.90;;;;;;5061298;28;20036;-78
2024/01/18 05:15:07;;;;;;;0.80;0.80;;;-1.30;99.90;;;;;;5057010;28;19920;-76
2024/01/18 05:17:41;;;;;;;0.70;0.70;;;-1.30;99.90;;;;;;5061250;28;20473;-76
2024/01/18 05:20:07;;;;;;;0.70;0.70;;;-1.20;99.90;;;;;;5042191;28;20122;-76
2024/01/18 05:22:34;;;;;;;0.80;0.80;;;-1.10;99.90;;;;;;5062037;28;20386;-74
2024/01/18 05:25:00;;;;;;;0.77;0.77;;;-1.10;99.90;;;;;;5059598;28;20095;-76
2024/01/18 05:27:36;;;;;;;0.70;0.70;;;-0.80;99.90;;;;;;5056626;28;20141;-76
2024/01/18 05:30:04;;;;;;;0.80;0.80;;;-1.40;99.90;;;;;;5041688;28;20476;-74
2024/01/18 05:32:30;;;;;;;0.70;0.70;;;-1.30;99.90;;;;;;5063609;28;20044;-74
2024/01/18 05:34:56;;;;;;;0.80;0.80;;;-1.20;99.90;;;;;;5058053;28;20455;-76
2024/01/18 05:37:27;;;;;;;0.80;0.80;;;-0.70;99.90;;;;;;5038571;28;20036;-76
2024/01/18 05:39:57;;;;;;;0.70;0.70;;;-1.10;99.90;;;;;;5062353;28;20036;-75
2024/01/18 05:42:27;;;;;;;0.80;0.80;;;-1.40;99.90;;;;;;5035146;28;20071;-76
2024/01/18 05:45:05;;;;;;;0.77;0.77;;;-1.10;99.90;;;;;;5064358;28;20041;-75
2024/01/18 05:47:30;;;;;;;0.68;0.68;;;-1.30;99.90;;;;;;5059961;28;20128;-74
2024/01/18 05:49:57;;;;;;;0.80;0.80;;;-1.20;99.90;;;;;;5063324;28;20123;-75
2024/01/18 05:52:27;;;;;;;0.70;0.70;;;-1.20;99.90;;;;;;5043211;28;20102;-76
2024/01/18 05:54:53;;;;;;;0.70;0.70;;;-1.10;99.90;;;;;;5061597;28;20444;-74
2024/01/18 05:57:19;;;;;;;0.80;0.80;;;-1.00;99.90;;;;;;5065207;28;20135;-75
2024/01/18 05:59:47;;;;;;;0.70;0.70;;;-1.10;99.90;;;;;;5045998;28;20047;-73
2024/01/18 06:02:13;;;;;;;0.75;0.75;;;-0.60;99.90;;;;;;5060608;28;20687;-75
2024/01/18 06:04:40;;;;;;;0.70;0.70;;;-0.80;99.90;;;;;;5047011;28;20097;-76
2024/01/18 06:07:06;;;;;;;0.80;0.80;;;-0.70;99.90;;;;;;5035257;28;20041;-76
2024/01/18 06:09:32;;;;;;;0.73;0.73;;;-0.30;99.90;;;;;;5027956;28;20046;-78
2024/01/18 06:11:58;;;;;;;0.80;0.80;;;-0.60;99.90;;;;;;5043114;28;20498;-76
2024/01/18 06:14:24;;;;;;;0.80;0.80;;;-0.60;99.90;;;;;;5043798;28;20056;-76
2024/01/18 06:16:50;;;;;;;0.70;0.70;;;-1.00;99.90;;;;;;5063918;28;20041;-75
2024/01/18 06:19:15;;;;;;;0.70;0.70;;;-0.70;99.90;;;;;;5062919;28;20068;-76
2024/01/18 06:21:44;;;;;;;0.65;0.65;;;-0.90;99.90;;;;;;5050508;28;20055;-75
2024/01/18 06:24:10;;;;;;;0.77;0.77;;;-1.20;99.90;;;;;;5046041;28;20033;-76
2024/01/18 06:26:38;;;;;;;0.80;0.80;;;-1.30;99.90;;;;;;5046117;28;20139;-77
2024/01/18 06:29:11;;;;;;;0.70;0.70;;;-1.60;99.90;;;;;;5061166;28;20057;-76
2024/01/18 06:31:37;;;;;;;0.80;0.80;;;-1.60;99.90;;;;;;5052805;28;20455;-77
2024/01/18 06:34:04;;;;;;;0.80;0.80;;;-1.80;99.90;;;;;;5057278;28;20079;-76
2024/01/18 06:36:31;;;;;;;0.70;0.70;;;-1.80;99.90;;;;;;5042267;28;20081;-76
2024/01/18 06:38:57;;;;;;;0.80;0.80;;;-2.00;99.90;;;;;;5039543;28;20790;-76
2024/01/18 06:41:25;;;;;;;0.82;0.82;;;-2.20;99.90;;;;;;5049206;28;20037;-75
2024/01/18 06:43:51;;;;;;;0.88;0.88;;;-2.20;99.90;;;;;;5041812;28;20041;-77
2024/01/18 06:46:18;;;;;;;0.80;0.80;;;-2.50;99.90;;;;;;5046990;28;20095;-76
2024/01/18 06:48:45;;;;;;;;;;;-2.50;99.90;;;;;;5040476;28;20051;-76
2024/01/18 06:51:14;;;;;;;0.80;0.80;;;-2.50;99.90;;;;;;5040241;28;19925;-77
2024/01/18 06:53:40;;;;;;;0.80;0.80;;;-2.60;99.90;;;;;;5056052;28;20386;-78
2024/01/18 06:56:12;;;;;;;0.80;0.80;;;-2.60;99.90;;;;;;5063264;28;20067;-75
2024/01/18 06:58:38;;;;;;;0.80;0.80;;;-2.60;99.90;;;;;;5060289;28;20116;-77
2024/01/18 07:01:04;;;;;;;;;;;-2.50;99.90;;;;;;5059795;28;20119;-75
2024/01/18 07:03:30;;;;;;;0.70;0.70;;;-2.30;99.90;;;;;;5055839;28;20007;-77
2024/01/18 07:05:57;;;;;;;0.75;0.75;;;-2.00;99.90;;;;;;5059751;28;20052;-77
2024/01/18 07:08:24;;;;;;;0.75;0.75;;;-1.80;99.90;;;;;;5042232;28;20048;-75
2024/01/18 07:10:50;;;;;;;0.70;0.70;;;-1.70;99.90;;;;;;5062245;28;20044;-77
2024/01/18 07:13:17;;;;;;;0.80;0.80;;;-1.20;99.90;;;;;;5057960;28;20044;-76
2024/01/18 07:15:43;;;;;;;0.70;0.70;;;-1.30;99.90;;;;;;5030080;28;20553;-75
2024/01/18 07:18:09;;;;;;;0.70;0.70;;;-1.30;99.90;;;;;;5044626;28;20036;-79
2024/01/18 07:20:34;;;;;;;0.80;0.80;;;-1.20;99.90;;;;;;5057038;28;20041;-78
2024/01/18 07:23:00;;;;;;;;;;;-1.20;99.90;;;;;;5049737;28;20051;-78
2024/01/18 07:25:26;;;;;;;0.77;0.77;;;-1.20;99.90;;;;;;5029151;28;19978;-80
2024/01/18 07:27:51;;;;;;;0.88;0.88;;;-1.30;99.90;;;;;;5053413;28;20044;-78
2024/01/18 07:30:17;;;;;;;0.80;0.80;;;-1.60;99.90;;;;;;5048576;28;20147;-80
2024/01/18 07:32:44;;;;;;;0.65;0.65;;;-1.30;99.90;;;;;;5066014;28;20091;-79
2024/01/18 07:35:10;;;;;;;2.58;1.60;;;-1.30;99.90;;;;;;5062477;28;20044;-79
2024/01/18 07:37:36;;;;;;;0.80;0.80;;;-1.30;99.90;;;;;;5049750;28;20489;-79
2024/01/18 07:40:07;;;;;;;0.80;0.80;;;-1.20;99.90;;;;;;5055503;28;20385;-80
2024/01/18 07:42:33;;;;;;;0.77;0.77;;;-1.40;99.90;;;;;;5064014;28;20043;-79
2024/01/18 07:44:59;;;;;;;0.73;0.73;;;-1.40;99.90;;;;;;5066594;28;20473;-79
2024/01/18 07:47:25;;;;;;;0.70;0.70;;;-1.40;99.90;;;;;;5064069;28;20040;-79
2024/01/18 07:49:51;;;;;;;;;;;-1.00;99.90;;;;;;5064040;28;20062;-79
2024/01/18 07:52:17;;;;;;;0.80;0.80;;;-1.00;99.90;;;;;;5045833;28;20005;-79
2024/01/18 07:54:43;;;;;;;0.80;0.80;;;-1.20;99.90;;;;;;5065162;28;20044;-80
2024/01/18 07:57:09;;;;;;;0.77;0.77;;;-1.20;99.90;;;;;;5054662;28;20198;-80
2024/01/18 07:59:36;;;;;;;0.80;0.80;;;-1.20;99.90;;;;;;5031351;28;20033;-80
2024/01/18 08:02:02;;;;;;;0.80;0.80;;;-1.20;99.90;;;;;;5064565;28;20388;-82
2024/01/18 08:04:29;;;;;;;0.70;0.70;;;-1.20;99.90;;;;;;5032067;28;20258;-81
2024/01/18 08:06:56;;;;;;;0.80;0.80;;;-1.20;99.90;;;;;;5063093;28;20552;-80
2024/01/18 08:09:22;;;;;;;0.80;0.80;;;-1.30;99.90;;;;;;5061268;28;20087;-82
2024/01/18 08:11:49;;;;;;;0.80;0.80;;;-1.30;99.90;;;;;;5042620;28;20044;-80
2024/01/18 08:14:15;;;;;;;0.80;0.80;;;-1.30;99.90;;;;;;5036147;28;20236;-81
2024/01/18 08:16:47;;;;;;;0.82;0.82;;;-1.30;99.90;;;;;;5053384;28;20105;-83
2024/01/18 08:19:13;;;;;;;;;;;-1.30;99.90;;;;;;5041005;28;20044;-79
2024/01/18 08:21:57;;;;;;;0.75;0.75;;;-1.30;99.90;;;;;;5069617;28;19966;-80
2024/01/18 08:24:23;;;;;;;0.80;0.80;;;-1.20;99.90;;;;;;5053000;28;20048;-81
2024/01/18 08:26:49;;;;;;;0.80;0.80;;;-1.30;99.90;;;;;;5064733;28;20076;-79
2024/01/18 08:29:15;;;;;;;0.80;0.80;;;;;;;;;;5053274;28;20045;-80
2024/01/18 08:31:42;;;;;;;0.80;0.80;;;;;;;;;;5069193;28;20085;-81
2024/01/18 08:34:08;;;;;;;;;;;;;;;;;;5071762;28;20091;-83
2024/01/18 08:36:36;;;;;;;0.80;0.80;;;;;;;;;;5051033;28;19924;-81
2024/01/18 08:39:07;;;;;;;0.70;0.70;;;;;;;;;;5074157;28;20119;-80
2024/01/18 08:41:33;;;;;;;0.80;0.80;;;;;;;;;;5065535;28;20409;-81
2024/01/18 08:43:59;;;;;;;;;;;;;;;;;;5078184;28;20052;-80
2024/01/18 08:46:26;;;;;;;0.70;0.70;;;;;;;;;;5049850;28;20435;-80
2024/01/18 08:48:53;;;;;;;0.70;0.70;;;;;;;;;;5055944;28;20041;-80
2024/01/18 08:51:20;;;;;;;0.77;0.77;;;;;;;;;;5047429;28;20076;-82
2024/01/18 08:53:46;;;;;;;;;;;;;;;;;;5051755;28;20044;-80
2024/01/18 08:56:12;;;;;;;0.70;0.70;;;;;;;;;;5064577;28;20345;-80
2024/01/18 08:58:39;;;;;;;0.70;0.70;;;;;;;;;;5066094;28;20045;-81
2024/01/18 09:01:05;;;;;;;0.60;0.60;;;;;;;;;;5054200;28;20041;-81
2024/01/18 09:03:31;;;;;;;;;;;;;;;;;;5045372;28;20063;-84
2024/01/18 09:05:58;;;;;;;0.60;0.60;;;;;;;;;;5071113;28;19956;-83
2024/01/18 09:08:24;;;;;;;;;;;;;;;;;;5074335;28;20401;-81
2024/01/18 09:10:50;;;;;;;0.82;0.82;;;;;;;;;;5072656;28;19916;-81
2024/01/18 09:13:16;;;;;;;0.80;0.80;;;;;;;;;;5053331;28;20036;-82
2024/01/18 09:15:42;;;;;;;;;;;;;;;;;;5037259;28;20044;-82
2024/01/18 09:18:13;;;;;;;0.70;0.70;;;;;;;;;;5048112;28;19928;-81
2024/01/18 09:20:40;;;;;;;0.60;0.60;;;;;;;;;;5055057;28;20044;-83
2024/01/18 09:23:06;;;;;;;0.70;0.70;;;0.60;99.90;;;;;;5076121;28;20045;-83
2024/01/18 09:25:35;;;;;;;0.80;0.80;;;;;;;;;;5078447;28;20036;-83
2024/01/18 09:28:00;;;;;;;;;;;0.80;99.90;;;;;;5057309;28;20045;-84
2024/01/18 09:30:26;;;;;;;0.60;0.60;;;0.90;99.90;;;;;;5045740;28;19920;-84
2024/01/18 09:32:54;;;;;;;0.75;0.75;;;1.30;99.90;;;;;;5080394;28;20044;-85
2024/01/18 09:35:23;;;;;;;0.60;0.60;;;1.00;99.90;;;;;;5062538;28;20385;-87
2024/01/18 09:37:48;;;;;;;0.70;0.70;;;1.20;99.90;;;;;;5054248;28;20052;-85
2024/01/18 09:40:15;;;;;;;0.63;0.63;;;1.40;99.90;;;;;;5075318;28;20072;-83
2024/01/18 09:42:47;;;;;;;0.70;0.70;;;1.50;99.90;;;;;;5038745;28;20059;-84
2024/01/18 09:45:14;;;;;;;0.68;0.68;;;1.60;99.90;;;;;;5057906;28;20397;-85
2024/01/18 09:47:44;;;;;;;0.70;0.70;;;1.90;99.90;;;;;;5073473;28;20052;-83
2024/01/18 09:50:11;;;;;;;0.70;0.70;;;2.00;99.90;;;;;;5043033;28;20045;-84
2024/01/18 09:52:37;;;;;;;0.70;0.70;;;2.10;99.90;;;;;;5070127;28;20095;-84
2024/01/18 09:55:04;;;;;;;0.63;0.63;;;2.20;99.90;;;;;;5073941;28;20071;-83
2024/01/18 09:57:35;;;;;;;0.70;0.70;;;2.20;99.90;;;;;;5069770;28;20076;-82
2024/01/18 10:00:03;;;;;;;0.70;0.70;;;1.90;99.90;;;;;;5057122;28;20072;-83
2024/01/18 10:02:30;;;;;;;0.70;0.70;;;1.60;99.90;;;;;;5059513;28;20146;-85
2024/01/18 10:05:00;;;;;;;0.68;0.68;;;1.40;99.90;;;;;;5069108;28;20044;-82
2024/01/18 10:07:29;;;;;;;0.70;0.70;;;1.20;99.90;;;;;;5067487;28;20048;-85
2024/01/18 10:09:55;;;;;;;0.60;0.60;;;1.10;99.90;;;;;;5039550;28;20334;-80
2024/01/18 10:12:21;;;;;;;0.57;0.57;;;1.00;99.90;;;;;;5059348;28;20040;-84
2024/01/18 10:14:47;;;;;;;0.60;0.60;;;1.00;99.90;;;;;;5059251;28;20055;-82
2024/01/18 10:17:22;;;;;;;0.80;0.80;;;1.00;99.90;;;;;;5025923;28;20037;-80
2024/01/18 10:20:00;;;;;;;0.80;0.80;;;1.10;99.90;;;;;;5046791;28;20666;-82
2024/01/18 10:22:27;;;;;;;0.65;0.65;;;1.30;99.90;;;;;;5053703;28;20044;-82
2024/01/18 10:24:53;;;;;;;0.70;0.70;;;1.60;99.90;;;;;;5058772;28;20081;-83
2024/01/18 10:27:19;;;;;;;0.60;0.60;;;1.40;99.90;;;;;;5040685;28;20051;-83
2024/01/18 10:29:45;;;;;;;0.52;0.52;;;1.60;99.90;;;;;;5054921;28;20047;-87
2024/01/18 10:32:11;;;;;;;0.70;0.70;;;3.00;99.90;;;;;;5043481;28;20044;-82
2024/01/18 10:34:37;;;;;;;0.57;0.57;;;1.60;99.90;;;;;;5055427;28;20060;-82
2024/01/18 10:37:04;;;;;;;0.60;0.60;;;1.60;99.90;;;;;;5067141;28;20044;-82
2024/01/18 10:39:39;;;;;;;;;;;1.80;99.90;;;;;;5068553;28;20420;-83
2024/01/18 10:42:08;;;;;;;0.70;0.70;;;2.00;99.90;;;;;;5032234;28;19921;-83
2024/01/18 10:44:42;;;;;;;0.60;0.60;;;2.30;99.90;;;;;;5037126;28;20033;-85
2024/01/18 10:47:13;;;;;;;0.60;0.60;;;2.60;99.90;;;;;;5077063;28;20070;-88
2024/01/18 10:49:43;;;;;;;0.70;0.70;;;2.60;99.90;;;;;;5055629;28;20481;-85
2024/01/18 10:52:10;;;;;;;0.68;0.68;;;2.50;99.90;;;;;;5069564;28;20056;-84
2024/01/18 10:54:43;;;;;;;0.60;0.60;;;2.30;99.90;;;;;;5053315;28;20093;-83
2024/01/18 10:57:09;;;;;;;1.00;1.00;;;2.10;99.90;;;;;;5070576;28;20057;-82
2024/01/18 10:59:35;;;;;;;0.70;0.70;;;1.90;99.90;;;;;;5053231;28;20192;-84
2024/01/18 11:02:01;;;;;;;0.63;0.63;;;1.80;99.90;;;;;;5050214;28;20458;-83
2024/01/18 11:04:28;;;;;;;0.70;0.70;;;1.70;99.90;;;;;;5070010;28;20095;-84
2024/01/18 11:06:55;;;;;;;0.70;0.70;;;1.70;99.90;;;;;;5049233;28;20154;-86
2024/01/18 11:09:27;;;;;;;0.70;0.70;;;1.60;99.90;;;;;;5057406;28;20104;-83
2024/01/18 11:11:56;;;;;;;1.23;1.23;;;1.50;99.90;;;;;;5063731;28;20082;-81
2024/01/18 11:14:22;;;;;;;0.60;0.60;;;1.40;99.90;;;;;;5048485;28;20078;-82
2024/01/18 11:16:48;;;;;;;0.50;0.50;;;1.60;99.90;;;;;;5065731;28;20040;-81
2024/01/18 11:19:37;;;;;;;0.65;0.65;;;1.30;99.90;;;;;;5046122;28;20037;-82
2024/01/18 11:22:03;;;;;;;0.70;0.70;;;1.20;99.90;;;;;;5047149;28;20047;-81
2024/01/18 11:24:29;;;;;;;0.70;0.70;;;1.30;99.90;;;;;;5047983;28;20032;-82
2024/01/18 11:26:58;;;;;;;0.60;0.60;;;1.30;99.90;;;;;;5061964;28;20044;-80
2024/01/18 11:29:26;;;;;;;0.70;0.70;;;1.30;99.90;;;;;;5030853;28;20190;-79
2024/01/18 11:31:53;;;;;;;0.65;0.65;;;1.30;99.90;;;;;;5067772;28;20052;-81
2024/01/18 11:34:26;;;;;;;0.80;0.80;;;1.30;99.90;;;;;;5043893;28;20147;-80
2024/01/18 11:37:07;;;;;;;0.70;0.70;;;1.60;99.90;;;;;;5040914;28;20060;-80
2024/01/18 11:39:48;;;;;;;0.75;0.75;;;1.50;99.90;;;;;;5061605;28;20066;-80
2024/01/18 11:42:22;;;;;;;0.60;0.60;;;1.60;99.90;;;;;;5050168;28;20032;-80
2024/01/18 11:45:07;;;;;;;0.70;0.70;;;2.70;99.90;;;;;;5043747;28;20119;-82
2024/01/18 11:47:35;;;;;;;0.70;0.70;;;1.70;99.90;;;;;;5062076;28;20462;-82
2024/01/18 11:50:05;;;;;;;0.70;0.70;;;1.80;99.90;;;;;;5064366;28;20044;-82
2024/01/18 11:52:33;;;;;;;0.80;0.80;;;1.80;99.90;;;;;;5059997;28;20079;-79
2024/01/18 11:55:00;;;;;;;0.63;0.63;;;1.90;99.90;;;;;;5046883;28;20444;-80
2024/01/18 11:57:26;;;;;;;0.70;0.70;;;2.00;99.90;;;;;;5042925;28;20048;-82
2024/01/18 11:59:53;;;;;;;0.70;0.70;;;2.00;99.90;;;;;;5048448;28;20114;-78
2024/01/18 12:02:21;;;;;;;0.60;0.60;;;2.00;99.90;;;;;;5043582;28;20815;-81
2024/01/18 12:04:48;;;;;;;0.60;0.60;;;2.00;99.90;;;;;;5045254;28;20347;-80
2024/01/18 12:07:15;;;;;;;0.60;0.60;;;2.20;99.90;;;;;;5032560;28;20432;-81
2024/01/18 12:09:43;;;;;;;0.93;0.93;;;1.90;99.90;;;;;;5065237;28;20090;-79
2024/01/18 12:12:09;;;;;;;0.60;0.60;;;2.00;99.90;;;;;;5050942;28;20087;-81
2024/01/18 12:14:40;;;;;;;0.75;0.75;;;2.00;99.90;;;;;;5069093;28;20095;-79
2024/01/18 12:17:10;;;;;;;0.70;0.70;;;2.00;99.90;;;;;;5070540;28;20120;-79
2024/01/18 12:19:41;;;;;;;0.70;0.70;;;2.10;99.90;;;;;;5070668;28;20052;-82
2024/01/18 12:22:09;;;;;;;0.70;0.70;;;2.10;99.90;;;;;;5069755;28;20044;-82
2024/01/18 12:24:35;;;;;;;1.15;1.15;;;2.10;99.90;;;;;;5072148;28;20102;-80
2024/01/18 12:27:02;;;;;;;0.95;0.95;;;2.10;99.90;;;;;;5066610;28;20065;-82
2024/01/18 12:29:33;;;;;;;0.70;0.70;;;2.60;99.90;;;;;;5067869;28;20398;-82
2024/01/18 12:32:02;;;;;;;0.55;0.55;;;3.50;99.90;;;;;;5075656;28;20084;-81
2024/01/18 12:34:29;;;;;;;0.70;0.70;;;2.20;99.90;;;;;;5049920;28;20399;-80
2024/01/18 12:37:00;;;;;;;0.65;0.65;;;2.20;99.90;;;;;;5067789;28;20130;-83
2024/01/18 12:39:26;;;;;;;0.60;0.60;;;2.20;99.90;;;;;;5047283;28;20052;-82
2024/01/18 12:42:01;;;;;;;0.70;0.70;;;2.20;99.90;;;;;;5068181;28;20050;-84
2024/01/18 12:44:29;;;;;;;;;;;2.30;99.90;;;;;;5036833;28;20029;-81
2024/01/18 12:46:55;;;;;;;0.60;0.60;;;2.30;99.90;;;;;;5069220;28;19921;-81
2024/01/18 12:49:22;;;;;;;;;;;2.40;99.90;;;;;;5033893;28;20045;-82
2024/01/18 12:51:57;;;;;;;0.70;0.70;;;3.40;99.90;;;;;;5050993;28;19923;-85
2024/01/18 12:54:24;;;;;;;0.60;0.60;;;2.40;99.90;;;;;;5064952;28;20072;-81
2024/01/18 12:57:00;;;;;;;0.73;0.73;;;2.50;99.90;;;;;;5047823;28;20612;-83
2024/01/18 12:59:31;;;;;;;0.60;0.60;;;2.60;99.90;;;;;;5069987;28;20048;-81
2024/01/18 13:01:57;;;;;;;0.70;0.70;;;2.70;99.90;;;;;;5070128;28;20086;-85
2024/01/18 13:04:33;;;;;;;0.70;0.70;;;2.80;99.90;;;;;;5044981;28;20039;-84
2024/01/18 13:07:00;;;;;;;0.55;0.55;;;2.90;99.90;;;;;;5049203;28;20045;-84
2024/01/18 13:09:27;;;;;;;0.55;0.55;;;2.80;99.90;;;;;;5050252;28;20128;-84
2024/01/18 13:11:59;;;;;;;0.60;0.60;;;2.90;99.90;;;;;;5056920;28;20342;-83